Time;durP1;ratioP1;P1;durP2;ratioP2;P2;SDS_P1;SDS_P2;PMS_P1;PMS_P2;Temp;Humidity;BMP_temperature;BMP_pressure;BME280_temperature;BME280_humidity;BME280_pressure;Samples;Min_cycle;Max_cycle;Signal;HPM_P1;HPM_P2
2024/01/03 00:02:44;;;;;;;7.00;3.80;;;;;;;5.77;96.46;98079.91;130338;1273;114780;-69
2024/01/03 00:05:46;;;;;;;10.40;5.50;;;;;;;5.76;96.38;98075.52;130391;1258;114784;-69
2024/01/03 00:08:48;;;;;;;10.30;5.90;;;;;;;5.75;96.37;98071.33;130070;1259;114796;-69
2024/01/03 00:11:50;;;;;;;8.60;4.60;;;;;;;5.75;96.38;98065.52;129937;1260;114945;-70
2024/01/03 00:14:52;;;;;;;8.50;5.10;;;;;;;5.74;96.33;98066.99;130186;1261;114697;-69
2024/01/03 00:17:54;;;;;;;7.70;5.40;;;;;;;5.74;96.47;98063.63;130243;1268;114795;-69
2024/01/03 00:20:58;;;;;;;8.50;5.20;;;;;;;5.73;96.39;98055.70;130323;1259;114713;-69
2024/01/03 00:24:09;;;;;;;9.40;5.10;;;;;;;5.73;96.36;98055.90;130220;1259;114734;-70
2024/01/03 00:27:11;;;;;;;7.80;5.50;;;;;;;5.72;96.41;98058.63;130102;1268;128527;-70
2024/01/03 00:30:14;;;;;;;6.40;4.20;;;;;;;5.71;96.64;98051.61;130160;1259;114776;-70
2024/01/03 00:33:16;;;;;;;8.30;4.70;;;;;;;5.72;96.67;98049.45;130217;1260;114769;-70
2024/01/03 00:36:18;;;;;;;4.80;3.20;;;;;;;5.72;96.74;98043.90;130193;1259;114717;-69
2024/01/03 00:39:25;;;;;;;7.30;4.60;;;;;;;5.72;96.77;98039.33;130302;1259;114714;-69
2024/01/03 00:42:27;;;;;;;6.10;3.40;;;;;;;5.73;96.80;98040.86;130213;1262;114787;-70
2024/01/03 00:45:29;;;;;;;5.10;4.10;;;;;;;5.74;96.97;98041.84;130303;1260;115211;-70
2024/01/03 00:48:32;;;;;;;5.20;3.20;;;;;;;5.75;96.94;98037.34;130284;1254;114705;-69
2024/01/03 00:51:34;;;;;;;5.70;3.20;;;;;;;5.76;97.08;98036.75;129972;1260;114786;-70
2024/01/03 00:54:36;;;;;;;4.70;3.00;;;;;;;5.77;97.13;98034.17;130218;1267;114720;-69
2024/01/03 00:57:38;;;;;;;4.90;2.60;;;;;;;5.78;97.01;98033.45;130282;1267;114718;-68
2024/01/03 01:00:40;;;;;;;4.70;3.00;;;;;;;5.80;97.10;98034.73;130383;1260;114776;-68
2024/01/03 01:03:42;;;;;;;5.90;3.10;;;;;;;5.81;97.24;98028.80;129895;1264;114902;-68
2024/01/03 01:06:44;;;;;;;4.60;2.30;;;;;;;5.82;97.23;98025.88;130253;1259;114784;-67
2024/01/03 01:09:46;;;;;;;5.30;2.50;;;;;;;5.83;97.20;98027.12;130253;1268;115389;-69
2024/01/03 01:12:48;;;;;;;4.30;2.90;;;;;;;5.84;97.26;98028.66;130217;1260;116389;-69
2024/01/03 01:15:50;;;;;;;5.60;3.60;;;;;;;5.84;97.20;98028.44;130244;1268;114782;-69
2024/01/03 01:18:52;;;;;;;5.40;3.10;;;;;;;5.85;97.26;98024.61;130329;1260;114766;-69
2024/01/03 01:21:54;;;;;;;3.50;2.30;;;;;;;5.87;97.38;98026.11;130212;1259;114716;-68
2024/01/03 01:24:55;;;;;;;4.30;2.20;;;;;;;5.88;97.30;98026.55;130204;1278;114722;-69
2024/01/03 01:27:57;;;;;;;6.20;2.90;;;;;;;5.88;97.26;98024.42;130260;1278;114705;-69
2024/01/03 01:30:59;;;;;;;3.90;2.70;;;;;;;5.89;97.28;98018.72;130226;1260;128027;-69
2024/01/03 01:34:01;;;;;;;4.20;2.70;;;;;;;5.88;97.33;98015.02;130237;1268;114721;-67
2024/01/03 01:37:03;;;;;;;3.60;2.60;;;;;;;5.88;97.25;98006.16;130336;1260;114733;-68
2024/01/03 01:40:07;;;;;;;4.90;2.20;;;;;;;5.88;97.14;98001.98;130292;1276;115296;-69
2024/01/03 01:43:09;;;;;;;4.40;2.70;;;;;;;5.86;97.32;98008.08;130117;1270;115408;-69
2024/01/03 01:46:11;;;;;;;3.20;2.00;;;;;;;5.85;97.32;98007.99;130265;1267;114865;-68
2024/01/03 01:49:16;;;;;;;6.60;3.70;;;;;;;5.85;97.39;97992.58;130343;1267;114715;-68
2024/01/03 01:52:19;;;;;;;4.00;2.60;;;;;;;5.85;97.33;97990.11;129893;1274;127806;-69
2024/01/03 01:55:21;;;;;;;5.30;2.90;;;;;;;5.86;97.47;97992.17;130175;1276;114757;-68
2024/01/03 01:58:23;;;;;;;4.60;2.90;;;;;;;5.86;97.44;97984.36;130244;1273;114791;-69
2024/01/03 02:01:26;;;;;;;4.60;2.90;;;;;;;5.86;97.46;97976.39;130313;1260;114747;-68
2024/01/03 02:04:28;;;;;;;3.30;2.10;;;;;;;5.86;97.61;97972.52;130326;1261;114733;-68
2024/01/03 02:07:30;;;;;;;4.20;3.00;;;;;;;5.85;97.70;97965.30;130216;1257;114649;-68
2024/01/03 02:10:32;;;;;;;4.00;2.90;;;;;;;5.85;97.82;97962.48;130316;1260;114754;-68
2024/01/03 02:13:34;;;;;;;4.90;2.20;;;;;;;5.85;97.70;97960.19;130091;1276;127534;-68
2024/01/03 02:16:36;;;;;;;4.30;2.80;;;;;;;5.85;97.86;97955.05;130211;1259;115269;-69
2024/01/03 02:19:37;;;;;;;4.20;2.70;;;;;;;5.85;97.87;97953.24;130489;1259;114830;-68
2024/01/03 02:22:39;;;;;;;5.50;3.10;;;;;;;5.87;98.00;97950.66;129933;1260;114942;-69
2024/01/03 02:25:41;;;;;;;3.10;1.90;;;;;;;5.88;98.00;97951.65;130259;1269;114743;-69
2024/01/03 02:28:43;;;;;;;3.00;1.80;;;;;;;5.88;98.08;97946.33;130297;1257;114963;-67
2024/01/03 02:31:45;;;;;;;2.90;2.00;;;;;;;5.90;98.19;97948.66;130044;1257;114831;-68
2024/01/03 02:34:47;;;;;;;3.00;2.30;;;;;;;5.90;98.13;97947.56;130294;1267;114734;-67
2024/01/03 02:37:49;;;;;;;3.30;2.10;;;;;;;5.91;98.18;97951.58;130311;1273;114694;-68
2024/01/03 02:40:51;;;;;;;2.70;1.60;;;;;;;5.93;98.13;97946.35;130206;1266;114750;-69
2024/01/03 02:43:53;;;;;;;3.80;1.80;;;;;;;5.95;98.18;97945.34;130183;1268;114795;-68
2024/01/03 02:46:55;;;;;;;3.70;2.20;;;;;;;5.97;98.30;97943.10;130254;1260;114738;-68
2024/01/03 02:49:58;;;;;;;3.50;2.10;;;;;;;5.98;98.24;97948.84;129886;1260;114956;-68
2024/01/03 02:53:01;;;;;;;4.10;1.70;;;;;;;6.01;98.35;97945.11;130306;1263;115206;-68
2024/01/03 02:56:04;;;;;;;2.80;2.00;;;;;;;6.03;98.28;97946.54;129902;1260;127573;-67
2024/01/03 02:59:06;;;;;;;3.10;2.50;;;;;;;6.06;98.31;97946.39;130255;1267;115169;-67
2024/01/03 03:02:07;;;;;;;2.80;1.60;;;;;;;6.06;98.47;97940.14;130373;1276;114744;-68
2024/01/03 03:05:09;;;;;;;2.90;1.80;;;;;;;6.08;98.44;97941.59;130288;1255;114770;-67
2024/01/03 03:08:11;;;;;;;4.00;1.40;;;;;;;6.10;98.54;97934.58;129925;1260;114966;-67
2024/01/03 03:11:13;;;;;;;4.40;1.60;;;;;;;6.13;98.59;97925.84;130123;1260;114718;-69
2024/01/03 03:14:15;;;;;;;3.50;1.50;;;;;;;6.16;98.83;97921.76;129873;1264;114703;-68
2024/01/03 03:17:17;;;;;;;4.20;1.70;;;;;;;6.19;98.67;97921.91;130099;1261;114834;-67
2024/01/03 03:20:19;;;;;;;3.00;1.50;;;;;;;6.21;98.67;97917.34;130155;1278;114833;-69
2024/01/03 03:23:21;;;;;;;3.40;1.90;;;;;;;6.24;98.82;97922.11;129846;1260;114902;-69
2024/01/03 03:26:22;;;;;;;2.90;1.60;;;;;;;6.27;98.83;97919.25;130125;1259;114876;-68
2024/01/03 03:29:24;;;;;;;3.20;1.70;;;;;;;6.31;98.99;97921.79;130221;1267;114842;-68
2024/01/03 03:32:26;;;;;;;2.00;1.50;;;;;;;6.34;98.95;97918.91;129869;1264;116542;-68
2024/01/03 03:35:28;;;;;;;3.90;1.30;;;;;;;6.37;98.99;97914.77;130185;1260;114728;-68
2024/01/03 03:38:30;;;;;;;2.50;1.80;;;;;;;6.40;99.11;97916.71;130304;1261;114808;-68
2024/01/03 03:41:32;;;;;;;3.00;1.30;;;;;;;6.43;98.99;97914.41;130138;1277;129208;-69
2024/01/03 03:44:34;;;;;;;2.60;1.60;;;;;;;6.46;99.06;97911.54;130141;1278;115108;-69
2024/01/03 03:47:36;;;;;;;2.60;1.30;;;;;;;6.49;98.95;97908.45;130344;1277;114753;-69
2024/01/03 03:50:37;;;;;;;2.20;1.50;;;;;;;6.51;98.99;97902.80;130343;1259;114732;-69
2024/01/03 03:53:39;;;;;;;2.60;1.80;;;;;;;6.53;98.81;97904.42;130203;1258;114747;-69
2024/01/03 03:56:41;;;;;;;3.20;1.70;;;;;;;6.53;98.75;97905.16;130316;1267;115179;-68
2024/01/03 03:59:43;;;;;;;2.30;1.30;;;;;;;6.54;98.68;97901.89;130213;1258;114725;-67
2024/01/03 04:02:45;;;;;;;3.40;1.40;;;;;;;6.55;98.86;97901.13;130201;1257;114798;-69
2024/01/03 04:05:47;;;;;;;2.00;1.00;;;;;;;6.54;98.71;97896.93;130265;1254;114823;-67
2024/01/03 04:08:50;;;;;;;1.60;1.00;;;;;;;6.52;98.53;97903.98;130248;1257;114741;-66
2024/01/03 04:11:52;;;;;;;1.90;1.20;;;;;;;6.48;98.27;97905.53;130099;1269;114822;-68
2024/01/03 04:14:54;;;;;;;2.10;1.40;;;;;;;6.43;98.09;97903.55;130310;1270;114654;-68
2024/01/03 04:17:55;;;;;;;2.40;0.90;;;;;;;6.36;98.04;97902.42;130303;1258;114802;-68
2024/01/03 04:20:57;;;;;;;2.50;1.60;;;;;;;6.32;98.12;97907.33;129905;1254;114778;-69
2024/01/03 04:23:59;;;;;;;2.10;1.30;;;;;;;6.29;98.19;97906.45;130211;1261;115044;-67
2024/01/03 04:27:01;;;;;;;2.10;1.20;;;;;;;6.26;98.20;97909.20;130181;1258;115115;-68
2024/01/03 04:30:04;;;;;;;2.90;1.00;;;;;;;6.22;98.04;97910.51;130152;1254;114878;-67
2024/01/03 04:33:06;;;;;;;2.50;1.30;;;;;;;6.18;98.00;97910.60;129966;1257;115341;-67
2024/01/03 04:36:10;;;;;;;3.60;1.70;;;;;;;6.13;98.13;97915.75;130128;1260;115195;-67
2024/01/03 04:39:11;;;;;;;3.00;1.60;;;;;;;6.08;98.10;97914.52;130148;1260;114827;-66
2024/01/03 04:42:13;;;;;;;2.40;1.60;;;;;;;6.06;98.44;97922.46;130230;1270;114793;-68
2024/01/03 04:45:16;;;;;;;2.90;1.80;;;;;;;6.07;98.55;97922.02;130216;1258;128516;-66
2024/01/03 04:48:18;;;;;;;3.30;1.80;;;;;;;6.10;98.79;97934.09;130131;1260;114681;-66
2024/01/03 04:51:20;;;;;;;2.10;1.20;;;;;;;6.12;98.85;97934.08;130179;1261;114789;-67
2024/01/03 04:54:22;;;;;;;3.00;1.60;;;;;;;6.14;99.03;97933.08;130273;1254;115266;-68
2024/01/03 04:57:24;;;;;;;1.80;1.30;;;;;;;6.17;99.12;97930.23;130235;1257;114719;-67
2024/01/03 05:00:26;;;;;;;3.30;1.50;;;;;;;6.21;99.32;97926.03;130203;1257;114703;-66
2024/01/03 05:03:28;;;;;;;1.80;0.70;;;;;;;6.27;99.46;97931.14;130242;1258;114746;-68
2024/01/03 05:06:30;;;;;;;1.60;0.70;;;;;;;6.33;99.61;97931.23;129882;1254;127909;-66
2024/01/03 05:09:34;;;;;;;2.30;1.10;;;;;;;6.38;99.66;97931.01;130212;1254;114753;-66
2024/01/03 05:12:37;;;;;;;2.80;1.50;;;;;;;6.43;99.73;97932.79;129960;1264;114789;-67
2024/01/03 05:15:39;;;;;;;3.90;2.30;;;;;;;6.46;99.50;97931.92;130278;1257;114737;-67
2024/01/03 05:18:40;;;;;;;4.00;1.70;;;;;;;6.47;99.62;97931.61;130255;1254;114715;-67
2024/01/03 05:21:42;;;;;;;2.30;1.40;;;;;;;6.52;99.71;97934.51;129868;1277;114857;-66
2024/01/03 05:24:44;;;;;;;2.00;1.60;;;;;;;6.54;99.79;97931.84;130152;1260;114722;-68
2024/01/03 05:27:46;;;;;;;1.10;0.50;;;;;;;6.57;99.73;97935.77;130258;1254;115373;-66
2024/01/03 05:30:48;;;;;;;3.00;1.60;;;;;;;6.58;99.66;97936.89;129910;1254;114722;-66
2024/01/03 05:33:50;;;;;;;1.60;0.70;;;;;;;6.60;99.67;97938.00;130202;1278;114785;-68
2024/01/03 05:36:52;;;;;;;1.30;0.60;;;;;;;6.60;99.63;97941.53;130231;1259;114700;-66
2024/01/03 05:39:54;;;;;;;1.80;1.00;;;;;;;6.60;99.62;97941.53;130401;1260;114840;-67
2024/01/03 05:42:56;;;;;;;3.10;0.60;;;;;;;6.58;99.39;97947.58;130206;1259;115209;-68
2024/01/03 05:45:58;;;;;;;2.00;1.20;;;;;;;6.55;99.40;97947.93;130265;1254;114722;-67
2024/01/03 05:49:00;;;;;;;2.00;0.90;;;;;;;6.51;99.47;97949.76;129933;1274;127811;-67
2024/01/03 05:52:02;;;;;;;1.60;0.80;;;;;;;6.49;99.47;97957.19;130194;1254;114795;-67
2024/01/03 05:55:06;;;;;;;2.00;0.80;;;;;;;6.47;99.33;97957.33;130282;1255;114792;-67
2024/01/03 05:58:08;;;;;;;3.00;0.70;;;;;;;6.45;99.55;97958.95;129925;1258;115536;-67
2024/01/03 06:01:10;;;;;;;2.70;1.40;;;;;;;6.44;99.65;97965.20;130319;1257;114780;-67
2024/01/03 06:04:15;;;;;;;1.90;1.20;;;;;;;6.46;99.74;97970.02;130343;1254;114737;-68
2024/01/03 06:07:18;;;;;;;1.90;0.80;;;;;;;6.50;99.98;97971.99;130396;1254;114728;-67
2024/01/03 06:10:20;;;;;;;1.30;0.70;;;;;;;6.57;100.00;97979.02;130212;1276;114726;-67
2024/01/03 06:13:22;;;;;;;3.10;1.50;;;;;;;6.62;100.00;97978.33;130230;1254;114732;-68
2024/01/03 06:16:24;;;;;;;1.60;1.00;;;;;;;6.67;100.00;97982.03;130303;1258;114805;-68
2024/01/03 06:19:26;;;;;;;2.40;1.40;;;;;;;6.70;99.93;97986.40;129928;1255;115173;-69
2024/01/03 06:22:27;;;;;;;4.30;1.20;;;;;;;6.72;99.92;97987.33;130134;1254;114723;-67
2024/01/03 06:25:31;;;;;;;2.20;1.20;;;;;;;6.74;99.91;97993.41;130215;1254;115348;-67
2024/01/03 06:28:33;;;;;;;3.90;1.50;;;;;;;6.74;99.70;97992.70;129868;1255;114724;-68
2024/01/03 06:31:35;;;;;;;4.80;2.20;;;;;;;6.74;99.91;98003.17;130134;1254;114721;-68
2024/01/03 06:34:36;;;;;;;4.30;2.10;;;;;;;6.74;99.82;98000.52;130197;1259;114747;-68
2024/01/03 06:37:40;;;;;;;3.90;1.50;;;;;;;6.73;99.94;98001.44;130129;1259;115081;-68
2024/01/03 06:40:42;;;;;;;2.60;1.30;;;;;;;6.73;99.82;98001.27;129948;1254;114821;-68
2024/01/03 06:43:46;;;;;;;3.50;1.10;;;;;;;6.77;100.00;98004.41;130196;1259;114729;-68
2024/01/03 06:46:49;;;;;;;4.30;1.80;;;;;;;6.82;99.97;98012.38;129871;1264;114856;-69
2024/01/03 06:49:51;;;;;;;2.40;1.10;;;;;;;6.88;100.00;98013.86;130138;1277;114721;-68
2024/01/03 06:52:53;;;;;;;4.30;1.30;;;;;;;6.95;100.00;98014.25;130326;1254;114699;-69
2024/01/03 06:55:55;;;;;;;2.80;1.00;;;;;;;7.03;100.00;98017.64;130228;1275;115216;-69
2024/01/03 06:59:00;;;;;;;4.10;1.70;;;;;;;7.10;99.97;98022.99;130243;1257;114902;-68
2024/01/03 07:02:02;;;;;;;3.30;1.60;;;;;;;7.13;99.84;98024.87;129892;1261;116364;-68
2024/01/03 07:05:05;;;;;;;3.30;1.90;;;;;;;7.14;99.68;98033.15;130179;1254;114733;-68
2024/01/03 07:08:07;;;;;;;2.40;1.20;;;;;;;7.15;99.71;98037.89;130247;1257;114729;-68
2024/01/03 07:11:09;;;;;;;4.00;1.50;;;;;;;7.16;99.63;98043.84;130081;1273;127579;-68
2024/01/03 07:14:13;;;;;;;4.40;1.30;;;;;;;7.18;99.42;98050.27;130098;1258;114703;-68
2024/01/03 07:17:15;;;;;;;3.00;1.50;;;;;;;7.21;99.62;98053.93;130335;1253;115112;-68
2024/01/03 07:20:17;;;;;;;2.70;1.40;;;;;;;7.26;99.67;98054.30;130390;1254;114715;-68
2024/01/03 07:23:19;;;;;;;3.00;1.00;;;;;;;7.32;99.66;98057.48;129853;1264;114854;-69
2024/01/03 07:26:21;;;;;;;4.60;1.30;;;;;;;7.38;99.63;98058.98;130092;1259;114709;-69
2024/01/03 07:29:22;;;;;;;4.60;2.00;;;;;;;7.44;99.57;98064.58;130195;1275;114799;-69
2024/01/03 07:32:24;;;;;;;7.90;3.00;;;;;;;7.49;99.83;98068.10;130184;1258;128929;-69
2024/01/03 07:35:26;;;;;;;5.70;2.80;;;;;;;7.55;99.48;98068.58;130193;1256;115211;-70
2024/01/03 07:38:28;;;;;;;3.10;1.30;;;;;;;7.60;99.34;98071.22;130347;1259;114758;-69
2024/01/03 07:41:31;;;;;;;2.00;1.00;;;;;;;7.65;99.04;98074.20;130017;1262;114787;-69
2024/01/03 07:44:38;;;;;;;4.10;1.20;;;;;;;7.68;98.86;98074.72;130221;1254;114786;-69
2024/01/03 07:47:40;;;;;;;3.80;0.90;;;;;;;7.71;98.34;98084.45;130164;1254;114709;-68
2024/01/03 07:50:42;;;;;;;4.60;1.30;;;;;;;7.73;98.55;98081.80;130104;1271;115399;-68
2024/01/03 07:53:44;;;;;;;1.80;1.20;;;;;;;7.75;98.15;98082.05;130132;1253;114796;-68
2024/01/03 07:56:46;;;;;;;1.50;0.70;;;;;;;7.77;97.93;98086.17;130239;1267;114871;-68
2024/01/03 07:59:48;;;;;;;3.40;1.60;;;;;;;7.81;97.78;98084.61;130224;1260;114721;-68
2024/01/03 08:02:50;;;;;;;2.40;1.50;;;;;;;7.90;98.03;98085.35;130252;1257;114741;-68
2024/01/03 08:05:53;;;;;;;3.90;2.20;;;;;;;7.95;97.83;98083.42;130052;1263;114818;-68
2024/01/03 08:08:55;;;;;;;4.40;2.00;;;;;;;7.97;97.78;98086.80;130232;1253;114976;-68
2024/01/03 08:11:57;;;;;;;3.10;1.60;;;;;;;8.02;97.47;98087.33;130225;1258;114773;-68
2024/01/03 08:14:59;;;;;;;2.50;1.30;;;;;;;8.10;97.48;98086.54;130336;1258;114723;-68
2024/01/03 08:18:00;;;;;;;8.10;5.30;;;;;;;8.21;97.56;98087.19;129806;1260;114708;-68
2024/01/03 08:21:03;;;;;;;4.10;2.40;;;;;;;8.30;97.91;98089.70;130179;1258;114712;-68
2024/01/03 08:24:05;;;;;;;4.10;2.40;;;;;;;8.36;97.12;98092.41;130265;1277;114714;-68
2024/01/03 08:27:07;;;;;;;3.50;2.00;;;;;;;8.38;97.01;98090.13;129958;1261;115338;-70
2024/01/03 08:30:09;;;;;;;5.10;1.80;;;;;;;8.39;96.51;98095.06;130227;1261;114721;-68
2024/01/03 08:33:11;;;;;;;3.20;1.40;;;;;;;8.39;96.05;98096.30;130177;1259;114805;-68
2024/01/03 08:36:14;;;;;;;3.60;1.30;;;;;;;8.40;95.74;98095.52;130188;1256;115177;-68
2024/01/03 08:39:16;;;;;;;2.90;1.60;;;;;;;8.44;95.76;98097.36;130246;1254;114825;-68
2024/01/03 08:42:18;;;;;;;3.50;1.40;;;;;;;8.50;95.64;98099.42;130164;1259;114789;-68
2024/01/03 08:45:20;;;;;;;1.50;0.60;;;;;;;8.57;95.51;98098.53;130199;1272;114874;-68
2024/01/03 08:48:21;;;;;;;2.20;0.90;;;;;;;8.61;95.48;98103.36;130230;1254;114722;-68
2024/01/03 08:51:24;;;;;;;4.50;1.20;;;;;;;8.61;94.73;98105.67;130241;1259;114757;-68
2024/01/03 08:54:28;;;;;;;1.20;0.50;;;;;;;8.62;94.69;98115.55;130350;1257;115101;-68
2024/01/03 08:57:31;;;;;;;2.00;0.80;;;;;;;8.68;94.81;98119.38;130280;1276;129776;-69
2024/01/03 09:00:33;;;;;;;1.50;0.80;;;;;;;8.77;94.80;98125.48;130235;1259;114817;-69
2024/01/03 09:03:35;;;;;;;5.50;1.00;;;;;;;8.88;94.86;98126.79;130252;1257;114734;-68
2024/01/03 09:06:38;;;;;;;5.00;2.80;;;;;;;8.99;94.77;98129.61;130310;1254;115341;-70
2024/01/03 09:09:40;;;;;;;11.10;4.70;;;;;;;9.12;94.84;98133.11;129931;1259;114821;-69
2024/01/03 09:12:42;;;;;;;4.50;2.40;;;;;;;9.29;94.85;98134.96;130391;1254;114813;-68
2024/01/03 09:15:44;;;;;;;8.90;3.20;;;;;;;9.49;94.72;98136.73;130345;1253;114707;-70
2024/01/03 09:18:47;;;;;;;5.20;2.70;;;;;;;9.67;94.13;98140.46;130238;1254;127911;-70
2024/01/03 09:21:48;;;;;;;7.00;3.70;;;;;;;9.84;94.06;98146.28;130194;1259;114761;-70
2024/01/03 09:24:50;;;;;;;4.00;2.50;;;;;;;10.01;93.67;98145.64;130041;1259;114760;-69
2024/01/03 09:27:52;;;;;;;3.70;2.70;;;;;;;10.16;93.46;98144.34;130221;1277;115159;-69
2024/01/03 09:30:54;;;;;;;2.30;1.60;;;;;;;10.26;92.73;98149.63;130307;1257;114842;-69
2024/01/03 09:33:56;;;;;;;2.20;1.10;;;;;;;10.31;92.40;98146.55;130196;1259;114783;-69
2024/01/03 09:36:58;;;;;;;2.40;1.00;;;;;;;10.35;92.01;98146.90;130194;1259;114715;-70
2024/01/03 09:40:00;;;;;;;2.90;1.20;;;;;;;10.40;92.08;98146.70;130240;1259;114744;-70
2024/01/03 09:43:02;;;;;;;4.10;0.90;;;;;;;10.43;91.32;98145.61;130308;1273;114785;-70
2024/01/03 09:46:04;;;;;;;3.80;1.90;;;;;;;10.47;91.01;98148.44;130225;1277;114773;-70
2024/01/03 09:49:05;;;;;;;1.50;1.10;;;;;;;10.54;90.92;98144.84;130189;1256;114811;-70
2024/01/03 09:52:08;;;;;;;2.70;1.40;;;;;;;10.65;90.87;98148.22;130322;1258;114805;-69
2024/01/03 09:55:10;;;;;;;3.70;1.00;;;;;;;10.77;90.59;98150.02;129890;1263;114751;-70
2024/01/03 09:58:12;;;;;;;2.10;0.80;;;;;;;10.94;90.71;98152.92;130174;1259;114725;-69
2024/01/03 10:01:14;;;;;;;2.70;1.20;;;;;;;11.07;90.56;98153.40;130245;1254;115175;-70
2024/01/03 10:04:16;;;;;;;3.70;1.20;;;;;;;11.16;90.11;98148.20;130199;1259;128536;-69
2024/01/03 10:07:33;;;;;;;3.40;1.20;;;;;;;11.24;89.99;98150.52;130220;1259;115058;-70
2024/01/03 10:10:36;;;;;;;2.60;1.10;;;;;;;11.32;89.89;98146.07;130262;1259;114715;-70
2024/01/03 10:13:41;;;;;;;3.00;1.30;;;;;;;11.38;89.61;98147.12;130251;1259;115231;-70
2024/01/03 10:16:47;;;;;;;4.00;1.50;;;;;;;11.44;89.22;98146.08;129978;1259;114792;-69
2024/01/03 10:19:49;;;;;;;2.10;0.80;;;;;;;11.49;88.94;98148.31;130054;1260;129652;-69
2024/01/03 10:23:09;;;;;;;4.60;2.60;;;;;;;11.54;88.90;98147.54;130170;1276;114820;-68
2024/01/03 10:26:11;;;;;;;3.40;1.60;;;;;;;11.57;88.34;98149.98;130157;1259;114697;-69
2024/01/03 10:29:15;;;;;;;3.60;2.50;;;;;;;11.58;87.71;98149.48;129897;1259;114722;-69
2024/01/03 10:32:17;;;;;;;2.50;1.30;;;;;;;11.61;87.45;98150.67;130107;1277;115426;-68
2024/01/03 10:35:19;;;;;;;4.70;1.90;;;;;;;11.68;86.95;98153.11;130140;1270;114709;-69
2024/01/03 10:38:22;;;;;;;2.90;1.40;;;;;;;11.76;86.77;98148.64;130058;1254;128008;-69
2024/01/03 10:41:24;;;;;;;6.90;1.60;;;;;;;11.85;87.09;98149.29;129653;1264;114885;-69
2024/01/03 10:44:26;;;;;;;3.00;1.60;;;;;;;11.93;86.74;98147.30;130103;1254;115164;-71
2024/01/03 10:47:28;;;;;;;4.20;2.50;;;;;;;12.00;86.32;98149.58;130230;1259;114760;-68
2024/01/03 10:50:30;;;;;;;4.00;2.20;;;;;;;12.04;86.39;98147.08;130236;1259;114782;-68
2024/01/03 10:53:35;;;;;;;7.80;3.80;;;;;;;12.07;85.73;98140.55;130240;1254;114761;-70
2024/01/03 10:56:37;;;;;;;;;;;;;;;12.11;85.70;98142.90;130262;1258;128719;-68
2024/01/03 10:59:48;;;;;;;4.50;2.60;;;;;;;12.14;85.37;98136.70;130253;1253;115183;-68
2024/01/03 11:03:12;;;;;;;3.90;1.60;;;;;;;12.17;84.83;98135.02;129989;1258;114787;-68
2024/01/03 11:06:30;;;;;;;2.20;1.00;;;;;;;12.25;84.95;98136.75;129936;1263;114823;-69
2024/01/03 11:09:33;;;;;;;5.70;3.40;;;;;;;12.32;84.58;98133.30;130351;1257;114668;-69
2024/01/03 11:12:35;;;;;;;3.30;1.50;;;;;;;12.32;83.63;98129.17;130205;1257;159996;-68
2024/01/03 11:15:43;;;;;;;3.10;1.20;;;;;;;12.32;83.23;98126.48;130373;1257;114741;-69
2024/01/03 11:18:48;;;;;;;2.60;1.00;;;;;;;12.34;83.06;98125.58;130044;1269;114796;-70
2024/01/03 11:21:50;;;;;;;1.80;0.60;;;;;;;12.36;82.52;98119.13;130201;1257;114668;-70
2024/01/03 11:24:52;;;;;;;2.00;1.10;;;;;;;12.37;82.09;98116.31;130176;1276;114741;-70
2024/01/03 11:28:29;;;;;;;2.90;0.80;;;;;;;12.41;81.61;98116.66;130248;1266;114825;-70
2024/01/03 11:32:02;;;;;;;4.00;1.40;;;;;;;12.49;81.22;98121.91;129899;1254;128318;-70
2024/01/03 11:35:08;;;;;;;2.20;1.00;;;;;;;12.56;81.08;98118.20;129519;1276;114759;-69
2024/01/03 11:38:10;;;;;;;3.20;1.60;;;;;;;12.62;81.02;98117.63;129446;1265;114708;-69
2024/01/03 11:41:15;;;;;;;2.80;1.70;;;;;;;12.75;81.27;98115.19;129429;1264;114804;-68
2024/01/03 11:44:20;;;;;;;3.70;1.10;;;;;;;12.89;80.93;98110.49;129518;1268;114889;-71
2024/01/03 11:47:22;;;;;;;2.00;0.90;;;;;;;12.97;80.29;98114.15;129327;1284;127901;-68
2024/01/03 11:50:30;;;;;;;2.00;1.10;;;;;;;13.06;80.33;98109.92;129588;1262;114720;-69
2024/01/03 11:53:32;;;;;;;2.70;0.90;;;;;;;13.16;80.05;98108.61;129429;1267;114857;-71
2024/01/03 11:56:34;;;;;;;1.60;1.00;;;;;;;13.26;79.63;98105.01;129350;1262;114867;-73
2024/01/03 11:59:36;;;;;;;2.50;1.10;;;;;;;13.37;79.30;98105.20;129462;1267;115469;-69
2024/01/03 12:02:50;;;;;;;2.40;0.80;;;;;;;13.48;78.90;98104.20;129161;1262;115490;-69
2024/01/03 12:05:52;;;;;;;2.80;0.50;;;;;;;13.58;79.02;98104.61;129393;1262;128382;-70
2024/01/03 12:08:54;;;;;;;3.80;1.10;;;;;;;13.67;78.62;98101.95;129452;1266;114875;-69
2024/01/03 12:11:56;;;;;;;2.70;1.30;;;;;;;13.69;78.01;98103.91;129752;1267;114735;-69
2024/01/03 12:14:58;;;;;;;4.30;1.70;;;;;;;13.69;77.63;98105.57;130017;1262;115256;-70
2024/01/03 12:18:07;;;;;;;2.90;1.30;;;;;;;13.70;77.31;98111.90;130298;1259;115159;-70
2024/01/03 12:21:10;;;;;;;3.40;1.50;;;;;;;13.68;77.13;98108.31;130031;1261;114900;-68
2024/01/03 12:24:13;;;;;;;2.90;1.00;;;;;;;13.67;76.71;98107.52;130079;1253;127847;-68
2024/01/03 12:27:22;;;;;;;7.70;1.70;;;;;;;13.63;76.75;98107.73;130273;1254;114702;-68
2024/01/03 12:30:24;;;;;;;4.30;2.40;;;;;;;13.63;76.66;98105.77;130209;1257;114871;-70
2024/01/03 12:33:26;;;;;;;4.30;1.70;;;;;;;13.58;76.28;98107.89;130325;1254;115201;-68
2024/01/03 12:36:28;;;;;;;3.10;2.10;;;;;;;13.49;76.19;98101.70;130211;1254;114764;-68
2024/01/03 12:39:37;;;;;;;6.90;3.20;;;;;;;13.39;76.43;98101.80;129847;1276;114816;-69
2024/01/03 12:42:40;;;;;;;3.70;2.20;;;;;;;13.25;75.75;98102.44;130239;1257;128190;-68
2024/01/03 12:45:42;;;;;;;3.60;1.80;;;;;;;13.09;75.73;98103.34;130229;1259;114638;-68
2024/01/03 12:48:44;;;;;;;3.70;1.50;;;;;;;12.96;75.59;98099.41;130182;1276;116261;-72
2024/01/03 12:51:46;;;;;;;2.70;1.60;;;;;;;12.80;75.26;98104.72;130236;1270;114706;-72
2024/01/03 12:54:48;;;;;;;3.80;1.70;;;;;;;12.66;75.62;98108.48;129856;1254;114720;-68
2024/01/03 12:57:50;;;;;;;4.40;1.40;;;;;;;12.55;75.99;98111.98;130134;1257;114729;-68
2024/01/03 13:00:52;;;;;;;8.90;4.10;;;;;;;12.47;76.39;98112.23;130257;1259;114783;-68
2024/01/03 13:03:54;;;;;;;9.80;4.20;;;;;;;12.38;76.31;98105.72;129872;1259;128060;-68
2024/01/03 13:06:55;;;;;;;4.10;2.20;;;;;;;12.26;76.25;98104.67;130154;1259;114780;-69
2024/01/03 13:09:57;;;;;;;5.80;2.40;;;;;;;12.14;76.06;98110.27;130154;1259;114764;-68
2024/01/03 13:13:00;;;;;;;6.30;2.70;;;;;;;12.00;76.15;98110.20;130226;1258;114722;-68
2024/01/03 13:16:03;;;;;;;3.80;1.90;;;;;;;11.89;76.18;98110.83;130266;1258;114765;-68
2024/01/03 13:19:04;;;;;;;7.30;3.30;;;;;;;11.79;76.40;98111.89;130186;1254;115224;-69
2024/01/03 13:22:06;;;;;;;8.00;4.10;;;;;;;11.69;76.20;98118.36;130335;1254;115385;-69
2024/01/03 13:25:08;;;;;;;10.40;3.80;;;;;;;11.60;76.10;98113.09;130340;1254;128714;-69
2024/01/03 13:28:10;;;;;;;9.10;4.20;;;;;;;11.52;76.11;98114.14;130136;1259;114954;-70
2024/01/03 13:31:14;;;;;;;10.10;5.10;;;;;;;11.45;76.81;98111.02;130333;1258;114744;-70
2024/01/03 13:34:15;;;;;;;17.80;8.30;;;;;;;11.38;76.61;98113.92;130238;1254;114782;-70
2024/01/03 13:37:17;;;;;;;5.70;2.60;;;;;;;11.30;76.89;98121.79;130262;1259;114762;-72
2024/01/03 13:40:19;;;;;;;10.50;5.90;;;;;;;11.23;76.56;98120.88;130242;1259;114644;-72
2024/01/03 13:43:22;;;;;;;10.20;5.30;;;;;;;11.19;77.19;98120.25;130216;1258;114776;-73
2024/01/03 13:46:25;;;;;;;15.10;6.00;;;;;;;11.15;77.11;98117.73;130309;1259;114799;-73
2024/01/03 13:49:27;;;;;;;10.70;4.80;;;;;;;11.10;77.09;98116.12;130193;1276;114741;-72
2024/01/03 13:52:29;;;;;;;11.00;5.30;;;;;;;11.06;77.38;98117.42;130197;1273;114788;-72
2024/01/03 13:55:32;;;;;;;9.20;4.80;;;;;;;11.00;77.14;98115.45;130305;1255;114773;-74
2024/01/03 13:58:45;;;;;;;9.00;3.90;;;;;;;10.92;77.08;98119.98;130001;1258;114884;-69
2024/01/03 14:01:48;;;;;;;5.60;3.10;;;;;;;10.86;76.73;98125.18;129931;1259;114802;-72
2024/01/03 14:04:50;;;;;;;15.00;9.00;;;;;;;10.79;77.18;98125.20;130119;1272;114747;-70
2024/01/03 14:07:52;;;;;;;9.30;5.00;;;;;;;10.75;77.22;98129.53;130213;1277;114929;-74